Newseas Pearl — H9JR — position and weather

sailwx.info

Track history (hours):
 
Tides and Currents Weather Stations Pressure Air Temp Water Temp Dewpoint Dewpoint Depression Visibility Wind Speed Wind Dir Waves Ship Positions

Newseas Pearl

Last reported at 2017-Aug-27 12:58 UTC. Time now 2017-Sep-25 15:21 UTC.
Position N 25°20' W 016°05'.
Warning: this ship's position is 29 days out of date.

Length 190 m; draft 9.4 m.

Type: Ship (hazmat cat A). MMSI: 355104000.

Date/timePositionNaut miles runAvg speedWind from/ knotsBaromVisibWave heightAir tempDewpointWater temp
2017-Aug-27 12:58N 25°20' W 016°05'712.3
2017-Aug-27 12:23N 25°27' W 016°02'612.3
2017-Aug-27 11:55N 25°32' W 016°00'612.2
2017-Aug-27 11:27N 25°38' W 015°58'612.1
2017-Aug-27 10:56N 25°44' W 015°56'612.3
2017-Aug-27 10:27N 25°49' W 015°54'612.1
2017-Aug-27 09:56N 25°55' W 015°52'611.9
2017-Aug-27 09:26N 26°01' W 015°50'1212.2
2017-Aug-27 08:28N 26°12' W 015°46'612.7
2017-Aug-27 08:00N 26°18' W 015°44'2512.9
2017-Aug-27 06:03N 26°41' W 015°34'113.1
2017-Aug-27 05:57N 26°43' W 015°33'813.1
2017-Aug-27 05:19N 26°50' W 015°30'512.9
2017-Aug-27 04:56N 26°55' W 015°28'812.8
2017-Aug-27 04:19N 27°02' W 015°25'412.7
2017-Aug-27 04:00N 27°06' W 015°23'612.6
2017-Aug-27 03:30N 27°12' W 015°21'4312.8
2017-Aug-27 00:10N 27°53' W 015°06'2313.2
2017-Aug-26 22:27N 28°14' W 014°57'612.6
2017-Aug-26 21:57N 28°20' W 014°55'713.0
2017-Aug-26 21:26N 28°26' W 014°52'612.9
2017-Aug-26 20:59N 28°31' W 014°49'812.5
2017-Aug-26 20:21N 28°39' W 014°46'612.5
2017-Aug-26 19:54N 28°44' W 014°44'812.7
2017-Aug-26 19:16N 28°51' W 014°40'412.9
2017-Aug-26 18:58N 28°55' W 014°38'2712.5
2017-Aug-26 16:50N 29°19' W 014°25'412.8
2017-Aug-26 16:30N 29°23' W 014°23'912.8
2017-Aug-26 15:49N 29°30' W 014°19'412.6
2017-Aug-26 15:28N 29°35' W 014°17'612.4
2017-Aug-26 14:57N 29°40' W 014°14'1212.4
2017-Aug-26 13:57N 29°52' W 014°08'1412.2
2017-Aug-26 12:49N 30°04' W 014°02'1012.3
2017-Aug-26 11:59N 30°14' W 013°57'3012.4
2017-Aug-26 09:34N 30°41' W 013°43'2112.6
2017-Aug-26 07:55N 31°00' W 013°33'6212.2
2017-Aug-26 02:51N 31°57' W 013°04'612.5
2017-Aug-26 02:20N 32°03' W 013°00'412.5
2017-Aug-26 02:00N 32°06' W 012°58'1012.7
2017-Aug-26 01:15N 32°15' W 012°54'812.5
2017-Aug-26 00:35N 32°23' W 012°50'1212.3
2017-Aug-25 23:34N 32°34' W 012°44'112.1
2017-Aug-25 23:30N 32°35' W 012°43'612.1
2017-Aug-25 23:00N 32°40' W 012°41'612.2
2017-Aug-25 22:30N 32°46' W 012°38'612.2
2017-Aug-25 22:00N 32°52' W 012°35'612.1
2017-Aug-25 21:30N 32°57' W 012°32'612.1
2017-Aug-25 21:00N 33°03' W 012°29'612.2
2017-Aug-25 20:30N 33°08' W 012°26'612.5
2017-Aug-25 20:00N 33°14' W 012°23'612.6
2017-Aug-25 19:30N 33°20' W 012°20'612.5
2017-Aug-25 19:00N 33°25' W 012°17'612.2
2017-Aug-25 18:30N 33°31' W 012°13'612.4
2017-Aug-25 18:00N 33°37' W 012°10'612.5
2017-Aug-25 17:30N 33°42' W 012°07'612.4
2017-Aug-25 17:00N 33°48' W 012°04'612.5
2017-Aug-25 16:30N 33°53' W 012°01'612.7
2017-Aug-25 16:00N 33°59' W 011°58'612.5
2017-Aug-25 15:30N 34°05' W 011°55'612.6
2017-Aug-25 15:00N 34°11' W 011°52'612.7
2017-Aug-25 14:30N 34°17' W 011°49'1212.4
2017-Aug-25 13:30N 34°28' W 011°43'612.6
2017-Aug-25 13:00N 34°34' W 011°39'612.6
2017-Aug-25 12:30N 34°39' W 011°36'612.5
2017-Aug-25 11:59N 34°45' W 011°33'612.4
2017-Aug-25 11:30N 34°51' W 011°30'812.6
2017-Aug-25 10:52N 34°58' W 011°26'512.6
2017-Aug-25 10:30N 35°02' W 011°24'612.5
2017-Aug-25 10:00N 35°08' W 011°21'612.8
2017-Aug-25 09:30N 35°14' W 011°18'812.6
2017-Aug-25 08:52N 35°21' W 011°14'1912.8
2017-Aug-25 07:25N 35°38' W 011°04'512.5
2017-Aug-25 07:00N 35°43' W 011°02'612.2
2017-Aug-25 06:30N 35°49' W 010°59'612.4
2017-Aug-25 06:00N 35°54' W 010°56'1812.4
2017-Aug-25 04:31N 36°11' W 010°47'112.0
2017-Aug-25 04:26N 36°12' W 010°47'712.3
2017-Aug-25 03:51N 36°19' W 010°43'412.5
2017-Aug-25 03:30N 36°23' W 010°41'612.3
2017-Aug-25 03:00N 36°28' W 010°38'612.4
2017-Aug-25 02:30N 36°34' W 010°35'712.3
2017-Aug-25 01:58N 36°40' W 010°32'612.3
2017-Aug-25 01:30N 36°45' W 010°29'612.4
2017-Aug-25 01:00N 36°51' W 010°26'612.5
2017-Aug-25 00:30N 36°57' W 010°22'812.7
2017-Aug-24 23:54N 37°03' W 010°18'513.0
2017-Aug-24 23:29N 37°08' W 010°15'613.1
2017-Aug-24 23:00N 37°14' W 010°11'612.9
2017-Aug-24 22:30N 37°20' W 010°08'612.8
2017-Aug-24 22:00N 37°26' W 010°05'713.7
2017-Aug-24 21:30N 37°32' W 010°01'713.4
2017-Aug-24 21:00N 37°38' W 009°58'713.9
2017-Aug-24 20:30N 37°44' W 009°54'714.0
2017-Aug-24 20:00N 37°51' W 009°50'612.9
2017-Aug-24 19:30N 37°56' W 009°46'713.9
2017-Aug-24 19:00N 38°03' W 009°43'510.7
2017-Aug-24 18:30N 38°08' W 009°41'1 1.2
2017-Aug-24 18:01N 38°08' W 009°40'510.1
2017-Aug-24 17:30N 38°13' W 009°37'713.6
2017-Aug-24 17:00N 38°19' W 009°34'713.2
2017-Aug-24 16:30N 38°25' W 009°30'612.8
2017-Aug-24 16:00N 38°30' W 009°26'612.1
2017-Aug-24 15:30N 38°36' W 009°24'510.4
2017-Aug-24 15:00N 38°40' W 009°19'3 6.1
2017-Aug-24 14:30N 38°41' W 009°15'3 6.2
2017-Aug-24 13:59N 38°41' W 009°11'3 7.1
2017-Aug-24 13:30N 38°42' W 009°07'1 1.0
2017-Aug-24 12:58N 38°42' W 009°06'0 0.0
2017-Aug-24 12:27N 38°42' W 009°06'0 0.0
2017-Aug-24 11:58N 38°42' W 009°06'0 0.4
2017-Aug-24 11:28N 38°42' W 009°06'0 0.2
2017-Aug-24 10:58N 38°42' W 009°07'0 0.0
2017-Aug-24 10:28N 38°42' W 009°07'0 0.0
2017-Aug-24 09:52N 38°42' W 009°07'0 0.0
2017-Aug-24 09:22N 38°42' W 009°07'0 0.1
2017-Aug-24 08:55N 38°42' W 009°07'0 0.1
2017-Aug-24 08:25N 38°42' W 009°07'0 0.0
2017-Aug-24 07:55N 38°42' W 009°07'0 0.1
2017-Aug-24 07:25N 38°42' W 009°07'0 0.1
2017-Aug-24 06:58N 38°42' W 009°07'0 0.0
2017-Aug-24 06:28N 38°42' W 009°07'0 0.1
2017-Aug-24 05:58N 38°42' W 009°06'0 0.2
2017-Aug-24 04:46N 38°42' W 009°06'0 0.0
2017-Aug-24 04:28N 38°42' W 009°06'0 0.0
2017-Aug-24 03:34N 38°42' W 009°06'0 0.0
2017-Aug-24 03:28N 38°42' W 009°06'0 0.0
2017-Aug-24 02:58N 38°42' W 009°06'0 0.0
2017-Aug-24 00:01N 38°42' W 009°06'0 0.3
2017-Aug-23 23:58N 38°42' W 009°06'0 0.3
2017-Aug-23 23:19N 38°42' W 009°06'0 0.2
2017-Aug-23 22:58N 38°42' W 009°06'0 0.1
2017-Aug-23 22:25N 38°42' W 009°07'0 0.1
2017-Aug-23 21:55N 38°42' W 009°07'0 0.0
2017-Aug-23 21:22N 38°42' W 009°07'0 0.0
2017-Aug-23 20:58N 38°42' W 009°07'0 0.0
2017-Aug-23 20:25N 38°42' W 009°07'0 0.0
2017-Aug-23 19:58N 38°42' W 009°07'0 0.0
2017-Aug-23 19:28N 38°42' W 009°07'0 0.0
2017-Aug-23 18:58N 38°42' W 009°07'0 0.0
2017-Aug-23 18:28N 38°42' W 009°07'0 0.1
2017-Aug-23 17:58N 38°42' W 009°07'0 0.2
2017-Aug-23 17:28N 38°42' W 009°06'0 0.2
2017-Aug-23 16:37N 38°42' W 009°06'0 0.2
2017-Aug-23 16:28N 38°42' W 009°06'0 0.1
2017-Aug-23 15:55N 38°42' W 009°06'0 0.0
2017-Aug-23 15:28N 38°42' W 009°06'0 0.0
2017-Aug-23 14:55N 38°42' W 009°06'0 0.0
2017-Aug-23 13:58N 38°42' W 009°06'0 0.0
2017-Aug-23 13:19N 38°42' W 009°06'0 0.0
2017-Aug-23 12:55N 38°42' W 009°06'0 0.0
2017-Aug-23 12:19N 38°42' W 009°06'0 0.0
2017-Aug-23 11:58N 38°42' W 009°06'0 0.0
2017-Aug-23 11:28N 38°42' W 009°06'0 0.2
2017-Aug-23 10:58N 38°42' W 009°06'0 0.3
2017-Aug-23 10:28N 38°42' W 009°07'0 0.1
2017-Aug-23 09:58N 38°42' W 009°07'0 0.1
2017-Aug-23 09:28N 38°42' W 009°07'0 0.0
2017-Aug-23 08:58N 38°42' W 009°07'0 0.0
2017-Aug-23 08:25N 38°42' W 009°07'0 0.0
2017-Aug-23 07:58N 38°42' W 009°07'0 0.0
2017-Aug-23 07:28N 38°42' W 009°07'0 0.0
2017-Aug-23 06:58N 38°42' W 009°07'0 0.1
2017-Aug-23 06:28N 38°42' W 009°07'0 0.0
2017-Aug-23 05:52N 38°42' W 009°07'0 0.1
2017-Aug-23 05:25N 38°42' W 009°06'0 0.1
2017-Aug-23 04:58N 38°42' W 009°06'0 0.3
2017-Aug-23 04:28N 38°42' W 009°06'0 0.1
2017-Aug-23 03:58N 38°42' W 009°06'0 0.0
2017-Aug-23 03:28N 38°42' W 009°06'0 0.0
2017-Aug-23 02:58N 38°42' W 009°06'0 0.0
2017-Aug-23 02:28N 38°42' W 009°06'0 0.0
2017-Aug-23 01:58N 38°42' W 009°06'0 0.1
2017-Aug-23 01:28N 38°42' W 009°06'0 0.0
2017-Aug-23 00:58N 38°42' W 009°06'0 0.0
2017-Aug-23 00:28N 38°42' W 009°06'0 0.1
2017-Aug-22 23:58N 38°42' W 009°06'0 0.0
2017-Aug-22 23:28N 38°42' W 009°06'0 0.1
2017-Aug-22 22:58N 38°42' W 009°06'0 0.3
2017-Aug-22 22:28N 38°42' W 009°07'0 0.1
2017-Aug-22 21:58N 38°42' W 009°07'0 0.0
2017-Aug-22 21:28N 38°42' W 009°07'0 0.0
2017-Aug-22 20:58N 38°42' W 009°07'0 0.0
2017-Aug-22 20:25N 38°42' W 009°07'0 0.0
2017-Aug-22 19:58N 38°42' W 009°07'0 0.0
2017-Aug-22 19:28N 38°42' W 009°07'0 0.0
2017-Aug-22 18:58N 38°42' W 009°07'0 0.0
2017-Aug-22 18:25N 38°42' W 009°07'0 0.0
2017-Aug-22 17:55N 38°42' W 009°07'0 0.2
2017-Aug-22 17:28N 38°42' W 009°06'0 0.4
2017-Aug-22 16:58N 38°42' W 009°06'0 0.2
2017-Aug-22 16:28N 38°42' W 009°06'0 0.0
2017-Aug-22 15:52N 38°42' W 009°06'0 0.0
2017-Aug-22 15:22N 38°42' W 009°06'0 0.0
2017-Aug-22 14:52N 38°42' W 009°06'0 0.0
2017-Aug-22 14:28N 38°42' W 009°06'0 0.0
2017-Aug-22 13:58N 38°42' W 009°06'0 0.0
2017-Aug-22 13:28N 38°42' W 009°06'0 0.0
2017-Aug-22 12:58N 38°42' W 009°06'0 0.0
2017-Aug-22 12:28N 38°42' W 009°06'0 0.0
2017-Aug-22 11:49N 38°42' W 009°06'0 0.0
2017-Aug-22 10:58N 38°42' W 009°06'0 0.2
2017-Aug-22 10:28N 38°42' W 009°06'0 0.3
2017-Aug-22 09:58N 38°42' W 009°06'0 0.1
2017-Aug-22 09:28N 38°42' W 009°07'0 0.0
2017-Aug-22 08:55N 38°42' W 009°07'0 0.0
2017-Aug-22 08:25N 38°42' W 009°07'0 0.0
2017-Aug-22 07:58N 38°42' W 009°07'0 0.0
2017-Aug-22 07:28N 38°42' W 009°07'0 0.0
2017-Aug-22 06:58N 38°42' W 009°07'0 0.0
2017-Aug-22 06:28N 38°42' W 009°07'0 0.1
2017-Aug-22 05:49N 38°42' W 009°06'0 0.0
2017-Aug-22 05:22N 38°42' W 009°06'0 0.1
2017-Aug-22 04:58N 38°42' W 009°06'0 0.4
2017-Aug-22 04:25N 38°42' W 009°06'0 0.1
2017-Aug-22 03:58N 38°42' W 009°06'0 0.0
2017-Aug-22 03:19N 38°42' W 009°06'0 0.0
2017-Aug-22 02:58N 38°42' W 009°06'0 0.0
2017-Aug-22 02:28N 38°42' W 009°06'0 0.0
2017-Aug-22 01:52N 38°42' W 009°06'0 0.0
2017-Aug-22 01:22N 38°42' W 009°06'0 0.0
2017-Aug-22 00:58N 38°42' W 009°06'0 0.0
2017-Aug-22 00:28N 38°42' W 009°06'0 0.0
2017-Aug-21 23:22N 38°42' W 009°06'0 0.0
2017-Aug-21 22:49N 38°42' W 009°06'0 0.1
2017-Aug-21 22:22N 38°42' W 009°06'0 0.3
2017-Aug-21 21:58N 38°42' W 009°06'0 0.2
2017-Aug-21 21:28N 38°42' W 009°06'0 0.0
2017-Aug-21 20:58N 38°42' W 009°06'0 0.0
2017-Aug-21 20:28N 38°42' W 009°07'0 0.0
2017-Aug-21 19:58N 38°42' W 009°07'0 0.0
2017-Aug-21 19:16N 38°42' W 009°07'0 0.0
2017-Aug-21 18:58N 38°42' W 009°07'0 0.0
2017-Aug-21 18:28N 38°42' W 009°07'0 0.0
2017-Aug-21 17:58N 38°42' W 009°07'0 0.0
2017-Aug-21 17:25N 38°42' W 009°07'0 0.0
2017-Aug-21 16:58N 38°42' W 009°07'0 0.3
2017-Aug-21 16:28N 38°42' W 009°06'0 0.3
2017-Aug-21 15:52N 38°42' W 009°06'0 0.1
2017-Aug-21 15:22N 38°42' W 009°06'0 0.1
2017-Aug-21 14:58N 38°42' W 009°06'0 0.0
2017-Aug-21 14:22N 38°42' W 009°06'0 0.0
2017-Aug-21 13:58N 38°42' W 009°06'0 0.0
2017-Aug-21 13:28N 38°42' W 009°06'0 0.0
2017-Aug-21 12:58N 38°42' W 009°06'0 0.0
2017-Aug-21 12:28N 38°42' W 009°06'0 0.0
2017-Aug-21 11:58N 38°42' W 009°06'0 0.0
2017-Aug-21 11:04N 38°42' W 009°06'0 0.1
2017-Aug-21 10:58N 38°42' W 009°06'0 0.1
2017-Aug-21 10:28N 38°42' W 009°06'0 0.0
2017-Aug-21 09:58N 38°42' W 009°06'0 0.2
2017-Aug-21 09:22N 38°42' W 009°06'0 0.2
2017-Aug-21 08:58N 38°42' W 009°07'0 0.1
2017-Aug-21 08:25N 38°42' W 009°07'0 0.0
2017-Aug-21 07:58N 38°42' W 009°07'0 0.1
2017-Aug-21 07:22N 38°42' W 009°07'0 0.1
2017-Aug-21 06:58N 38°42' W 009°07'0 0.1
2017-Aug-21 06:28N 38°42' W 009°07'0 0.0
2017-Aug-21 05:58N 38°42' W 009°07'0 0.0
2017-Aug-21 05:28N 38°42' W 009°07'0 0.0
2017-Aug-21 04:58N 38°42' W 009°07'0 0.0
2017-Aug-21 04:28N 38°42' W 009°07'0 0.2
2017-Aug-21 03:58N 38°42' W 009°06'0 0.2
2017-Aug-21 03:25N 38°42' W 009°06'0 0.1
2017-Aug-21 02:58N 38°42' W 009°06'0 0.0
2017-Aug-21 02:01N 38°42' W 009°06'0 0.0
2017-Aug-21 01:49N 38°42' W 009°06'0 0.0
2017-Aug-21 01:28N 38°42' W 009°06'0 0.0
2017-Aug-21 00:49N 38°42' W 009°06'0 0.0
2017-Aug-21 00:25N 38°42' W 009°06'0 0.0
2017-Aug-20 23:58N 38°42' W 009°06'0 0.0
2017-Aug-20 23:28N 38°42' W 009°06'0 0.0
2017-Aug-20 22:58N 38°42' W 009°06'0 0.0
2017-Aug-20 22:28N 38°42' W 009°06'0 0.0
2017-Aug-20 21:58N 38°42' W 009°06'0 0.1
2017-Aug-20 21:22N 38°42' W 009°06'0 0.0
2017-Aug-20 20:58N 38°42' W 009°06'0 0.2
2017-Aug-20 20:28N 38°42' W 009°06'0 0.2
2017-Aug-20 19:58N 38°42' W 009°06'0 0.0
2017-Aug-20 19:28N 38°42' W 009°06'0 0.1
2017-Aug-20 18:58N 38°42' W 009°06'0 0.1
2017-Aug-20 18:28N 38°42' W 009°07'0 0.0
2017-Aug-20 17:55N 38°42' W 009°06'0 0.0
2017-Aug-20 17:25N 38°42' W 009°07'0 0.0
2017-Aug-20 16:55N 38°42' W 009°06'0 0.0
2017-Aug-20 16:25N 38°42' W 009°06'0 0.0
2017-Aug-20 15:58N 38°42' W 009°06'0 0.3
2017-Aug-20 15:22N 38°42' W 009°06'0 0.1
2017-Aug-20 14:58N 38°42' W 009°06'0 0.1
2017-Aug-20 14:22N 38°42' W 009°06'0 0.0
2017-Aug-20 13:46N 38°42' W 009°06'0 0.0
2017-Aug-20 13:28N 38°42' W 009°06'0 0.0
2017-Aug-20 12:58N 38°42' W 009°06'0 0.0
2017-Aug-20 11:43N 38°42' W 009°06'0 0.0
2017-Aug-20 11:25N 38°42' W 009°06'0 0.0
2017-Aug-20 10:52N 38°42' W 009°06'0 0.0
2017-Aug-20 10:28N 38°42' W 009°06'0 0.0
2017-Aug-20 09:58N 38°42' W 009°06'0 0.2
2017-Aug-20 09:28N 38°42' W 009°06'0 0.2
2017-Aug-20 08:58N 38°42' W 009°06'0 0.1
2017-Aug-20 08:25N 38°42' W 009°06'0 0.1
2017-Aug-20 07:58N 38°42' W 009°07'0 0.0
2017-Aug-20 07:28N 38°42' W 009°07'0 0.0
2017-Aug-20 06:58N 38°42' W 009°07'0 0.0
2017-Aug-20 06:25N 38°42' W 009°07'0 0.0
2017-Aug-20 05:58N 38°42' W 009°07'0 0.0
2017-Aug-20 05:28N 38°42' W 009°07'0 0.0
2017-Aug-20 04:58N 38°42' W 009°07'0 0.0
2017-Aug-20 04:28N 38°42' W 009°07'0 0.0
2017-Aug-20 03:55N 38°42' W 009°07'0 0.0
2017-Aug-20 03:28N 38°42' W 009°07'0 0.3
2017-Aug-20 02:58N 38°42' W 009°06'0 0.2
2017-Aug-20 02:28N 38°42' W 009°06'0 0.0
2017-Aug-20 01:58N 38°42' W 009°06'0 0.0
2017-Aug-20 01:25N 38°42' W 009°06'0 0.0
2017-Aug-20 00:34N 38°42' W 009°06'0 0.1
2017-Aug-20 00:28N 38°42' W 009°06'0 0.0
2017-Aug-19 23:16N 38°42' W 009°06'0 0.0
2017-Aug-19 22:43N 38°42' W 009°06'0 0.1
2017-Aug-19 22:28N 38°42' W 009°06'0 0.0
2017-Aug-19 21:52N 38°42' W 009°06'0 0.1
2017-Aug-19 21:28N 38°42' W 009°06'0 0.1
2017-Aug-19 20:58N 38°42' W 009°06'0 0.2
2017-Aug-19 20:28N 38°42' W 009°06'0 0.1
2017-Aug-19 19:58N 38°42' W 009°06'0 0.1
2017-Aug-19 19:28N 38°42' W 009°06'0 0.0
2017-Aug-19 18:55N 38°42' W 009°07'0 0.0
2017-Aug-19 18:25N 38°42' W 009°07'0 0.0
2017-Aug-19 17:58N 38°42' W 009°07'0 0.0
2017-Aug-19 17:28N 38°42' W 009°07'0 0.0
2017-Aug-19 16:55N 38°42' W 009°07'0 0.0
2017-Aug-19 16:28N 38°42' W 009°07'0 0.0
2017-Aug-19 15:58N 38°42' W 009°07'0 0.0
2017-Aug-19 15:28N 38°42' W 009°07'0 0.0
2017-Aug-19 14:58N 38°42' W 009°07'0 0.1
2017-Aug-19 13:58N 38°42' W 009°06'0 0.2
2017-Aug-19 13:25N 38°42' W 009°06'0 0.1
2017-Aug-19 12:58N 38°42' W 009°06'0 0.0
2017-Aug-19 12:22N 38°42' W 009°06'0 0.0
2017-Aug-19 11:58N 38°42' W 009°06'0 0.0
2017-Aug-19 11:28N 38°42' W 009°06'0 0.0
2017-Aug-19 10:22N 38°42' W 009°06'0 0.0
2017-Aug-19 09:58N 38°42' W 009°06'0 0.0
2017-Aug-19 09:16N 38°42' W 009°06'0 0.0
2017-Aug-19 08:55N 38°42' W 009°06'0 0.1
2017-Aug-19 08:25N 38°42' W 009°06'0 0.2
2017-Aug-19 07:58N 38°42' W 009°06'0 0.1
2017-Aug-19 07:28N 38°42' W 009°06'0 0.0
2017-Aug-19 06:55N 38°42' W 009°07'0 0.1
2017-Aug-19 06:28N 38°42' W 009°07'0 0.0
2017-Aug-19 05:55N 38°42' W 009°07'0 0.0
2017-Aug-19 05:28N 38°42' W 009°07'0 0.0
2017-Aug-19 04:58N 38°42' W 009°07'0 0.0
2017-Aug-19 04:28N 38°42' W 009°07'0 0.0
2017-Aug-19 03:58N 38°42' W 009°07'0 0.0
2017-Aug-19 03:28N 38°42' W 009°07'0 0.0
2017-Aug-19 02:58N 38°42' W 009°07'0 0.1
2017-Aug-19 02:28N 38°42' W 009°06'0 0.1
2017-Aug-19 01:58N 38°42' W 009°06'0 0.1
2017-Aug-19 01:28N 38°42' W 009°06'0 0.2
2017-Aug-19 00:52N 38°42' W 009°06'0 0.1
2017-Aug-19 00:28N 38°42' W 009°06'0 0.0
2017-Aug-18 23:58N 38°42' W 009°06'0 0.0
2017-Aug-18 23:25N 38°42' W 009°06'0 0.0
2017-Aug-18 22:52N 38°42' W 009°06'0 0.0
2017-Aug-18 22:16N 38°42' W 009°06'0 0.0
2017-Aug-18 21:58N 38°42' W 009°06'0 0.1
2017-Aug-18 21:28N 38°42' W 009°06'0 0.1
2017-Aug-18 20:58N 38°42' W 009°06'0 0.1
2017-Aug-18 20:25N 38°42' W 009°06'0 0.1
2017-Aug-18 19:55N 38°42' W 009°06'0 0.2
2017-Aug-18 19:28N 38°42' W 009°06'0 0.0
2017-Aug-18 18:55N 38°42' W 009°06'0 0.1
2017-Aug-18 18:28N 38°42' W 009°06'0 0.1
2017-Aug-18 17:58N 38°42' W 009°07'0 0.0
2017-Aug-18 17:25N 38°42' W 009°07'0 0.1
2017-Aug-18 16:58N 38°42' W 009°07'0 0.0
2017-Aug-18 16:28N 38°42' W 009°07'0 0.0
2017-Aug-18 15:58N 38°42' W 009°07'0 0.0
2017-Aug-18 15:28N 38°42' W 009°07'0 0.0
2017-Aug-18 14:58N 38°42' W 009°07'0 0.1
2017-Aug-18 13:55N 38°42' W 009°06'0 0.0
2017-Aug-18 13:28N 38°42' W 009°06'0 0.1
2017-Aug-18 12:58N 38°42' W 009°06'0 0.1
2017-Aug-18 12:28N 38°42' W 009°06'0 0.1
2017-Aug-18 11:58N 38°42' W 009°06'0 0.1
2017-Aug-18 11:28N 38°42' W 009°06'0 0.0
2017-Aug-18 10:58N 38°42' W 009°06'0 0.1
2017-Aug-18 10:25N 38°42' W 009°06'0 0.0
2017-Aug-18 09:58N 38°42' W 009°06'0 0.0
2017-Aug-18 09:28N 38°42' W 009°06'0 0.0
2017-Aug-18 08:58N 38°42' W 009°06'0 0.0
2017-Aug-18 08:28N 38°42' W 009°06'0 0.3
2017-Aug-18 07:58N 38°42' W 009°06'0 0.2
2017-Aug-18 07:25N 38°42' W 009°07'0 0.0
2017-Aug-18 06:58N 38°42' W 009°07'0 0.1
2017-Aug-18 06:28N 38°42' W 009°07'0 0.1
2017-Aug-18 05:58N 38°42' W 009°07'0 0.0
2017-Aug-18 05:28N 38°42' W 009°07'0 0.0
2017-Aug-18 04:58N 38°42' W 009°07'0 0.0
2017-Aug-18 04:25N 38°42' W 009°07'0 0.0
2017-Aug-18 03:58N 38°42' W 009°07'0 0.0
2017-Aug-18 03:25N 38°42' W 009°07'0 0.0
2017-Aug-18 02:58N 38°42' W 009°07'0 0.0
2017-Aug-18 02:28N 38°42' W 009°07'0 0.0
2017-Aug-18 01:58N 38°42' W 009°07'0 0.1
2017-Aug-18 01:30N 38°42' W 009°07'1 2.5
2017-Aug-18 01:01N 38°41' W 009°08'4 7.6
2017-Aug-18 00:30N 38°41' W 009°13'510.7
2017-Aug-18 00:00N 38°39' W 009°19'4 8.4
2017-Aug-17 23:30N 38°37' W 009°24'3 6.1
2017-Aug-17 23:00N 38°40' W 009°25'2 4.1
2017-Aug-17 22:31N 38°39' W 009°26'611.4
2017-Aug-17 22:01N 38°33' W 009°29'611.0
2017-Aug-17 21:30N 38°28' W 009°32'3 6.9
2017-Aug-17 21:01N 38°25' W 009°33'1 2.5
2017-Aug-17 20:31N 38°26' W 009°32'1 2.8
2017-Aug-17 20:00N 38°27' W 009°31'1 2.9
2017-Aug-17 19:31N 38°29' W 009°31'2 3.2
2017-Aug-17 19:00N 38°30' W 009°30'2 3.3
2017-Aug-17 18:31N 38°32' W 009°29'2 3.1
2017-Aug-17 18:00N 38°33' W 009°29'1 2.7
2017-Aug-17 17:31N 38°35' W 009°29'4 7.9
2017-Aug-17 17:00N 38°38' W 009°26'2 3.7
2017-Aug-17 16:31N 38°40' W 009°25'0 0.2
2017-Aug-17 15:59N 38°39' W 009°25'0 0.0
2017-Aug-17 15:28N 38°39' W 009°25'0 0.0
2017-Aug-17 14:59N 38°39' W 009°25'0 0.1
2017-Aug-17 14:28N 38°40' W 009°25'0 0.1
2017-Aug-17 13:59N 38°39' W 009°25'0 0.0
2017-Aug-17 13:28N 38°40' W 009°25'0 0.0
2017-Aug-17 12:58N 38°40' W 009°25'  
Track history (hours):
 
Tides and Currents Weather Stations Pressure Air Temp Water Temp Dewpoint Dewpoint Depression Visibility Wind Speed Wind Dir Waves Ship Positions

Newseas Pearl

Last reported at 2017-Aug-27 12:58 UTC. Time now 2017-Sep-25 15:21 UTC.
Position N 25°20' W 016°05'.
Warning: this ship's position is 29 days out of date.

Length 190 m; draft 9.4 m.

Type: Ship (hazmat cat A). MMSI: 355104000.

Date/timePositionNaut miles runAvg speedWind from/ knotsBaromVisibWave heightAir tempDewpointWater temp
2017-Aug-27 12:58N 25°20' W 016°05'712.3
2017-Aug-27 12:23N 25°27' W 016°02'612.3
2017-Aug-27 11:55N 25°32' W 016°00'612.2
2017-Aug-27 11:27N 25°38' W 015°58'612.1
2017-Aug-27 10:56N 25°44' W 015°56'612.3
2017-Aug-27 10:27N 25°49' W 015°54'612.1
2017-Aug-27 09:56N 25°55' W 015°52'611.9
2017-Aug-27 09:26N 26°01' W 015°50'1212.2
2017-Aug-27 08:28N 26°12' W 015°46'612.7
2017-Aug-27 08:00N 26°18' W 015°44'2512.9
2017-Aug-27 06:03N 26°41' W 015°34'113.1
2017-Aug-27 05:57N 26°43' W 015°33'813.1
2017-Aug-27 05:19N 26°50' W 015°30'512.9
2017-Aug-27 04:56N 26°55' W 015°28'812.8
2017-Aug-27 04:19N 27°02' W 015°25'412.7
2017-Aug-27 04:00N 27°06' W 015°23'612.6
2017-Aug-27 03:30N 27°12' W 015°21'4312.8
2017-Aug-27 00:10N 27°53' W 015°06'2313.2
2017-Aug-26 22:27N 28°14' W 014°57'612.6
2017-Aug-26 21:57N 28°20' W 014°55'713.0
2017-Aug-26 21:26N 28°26' W 014°52'612.9
2017-Aug-26 20:59N 28°31' W 014°49'812.5
2017-Aug-26 20:21N 28°39' W 014°46'612.5
2017-Aug-26 19:54N 28°44' W 014°44'812.7
2017-Aug-26 19:16N 28°51' W 014°40'412.9
2017-Aug-26 18:58N 28°55' W 014°38'2712.5
2017-Aug-26 16:50N 29°19' W 014°25'412.8
2017-Aug-26 16:30N 29°23' W 014°23'912.8
2017-Aug-26 15:49N 29°30' W 014°19'412.6
2017-Aug-26 15:28N 29°35' W 014°17'612.4
2017-Aug-26 14:57N 29°40' W 014°14'1212.4
2017-Aug-26 13:57N 29°52' W 014°08'1412.2
2017-Aug-26 12:49N 30°04' W 014°02'1012.3
2017-Aug-26 11:59N 30°14' W 013°57'3012.4
2017-Aug-26 09:34N 30°41' W 013°43'2112.6
2017-Aug-26 07:55N 31°00' W 013°33'6212.2
2017-Aug-26 02:51N 31°57' W 013°04'612.5
2017-Aug-26 02:20N 32°03' W 013°00'412.5
2017-Aug-26 02:00N 32°06' W 012°58'1012.7
2017-Aug-26 01:15N 32°15' W 012°54'812.5
2017-Aug-26 00:35N 32°23' W 012°50'1212.3
2017-Aug-25 23:34N 32°34' W 012°44'112.1
2017-Aug-25 23:30N 32°35' W 012°43'612.1
2017-Aug-25 23:00N 32°40' W 012°41'612.2
2017-Aug-25 22:30N 32°46' W 012°38'612.2
2017-Aug-25 22:00N 32°52' W 012°35'612.1
2017-Aug-25 21:30N 32°57' W 012°32'612.1
2017-Aug-25 21:00N 33°03' W 012°29'612.2
2017-Aug-25 20:30N 33°08' W 012°26'612.5
2017-Aug-25 20:00N 33°14' W 012°23'612.6
2017-Aug-25 19:30N 33°20' W 012°20'612.5
2017-Aug-25 19:00N 33°25' W 012°17'612.2
2017-Aug-25 18:30N 33°31' W 012°13'612.4
2017-Aug-25 18:00N 33°37' W 012°10'612.5
2017-Aug-25 17:30N 33°42' W 012°07'612.4
2017-Aug-25 17:00N 33°48' W 012°04'612.5
2017-Aug-25 16:30N 33°53' W 012°01'612.7
2017-Aug-25 16:00N 33°59' W 011°58'612.5
2017-Aug-25 15:30N 34°05' W 011°55'612.6
2017-Aug-25 15:00N 34°11' W 011°52'612.7
2017-Aug-25 14:30N 34°17' W 011°49'1212.4
2017-Aug-25 13:30N 34°28' W 011°43'612.6
2017-Aug-25 13:00N 34°34' W 011°39'612.6
2017-Aug-25 12:30N 34°39' W 011°36'612.5
2017-Aug-25 11:59N 34°45' W 011°33'612.4
2017-Aug-25 11:30N 34°51' W 011°30'812.6
2017-Aug-25 10:52N 34°58' W 011°26'512.6
2017-Aug-25 10:30N 35°02' W 011°24'612.5
2017-Aug-25 10:00N 35°08' W 011°21'612.8
2017-Aug-25 09:30N 35°14' W 011°18'812.6
2017-Aug-25 08:52N 35°21' W 011°14'1912.8
2017-Aug-25 07:25N 35°38' W 011°04'512.5
2017-Aug-25 07:00N 35°43' W 011°02'612.2
2017-Aug-25 06:30N 35°49' W 010°59'612.4
2017-Aug-25 06:00N 35°54' W 010°56'1812.4
2017-Aug-25 04:31N 36°11' W 010°47'112.0
2017-Aug-25 04:26N 36°12' W 010°47'712.3
2017-Aug-25 03:51N 36°19' W 010°43'412.5
2017-Aug-25 03:30N 36°23' W 010°41'612.3
2017-Aug-25 03:00N 36°28' W 010°38'612.4
2017-Aug-25 02:30N 36°34' W 010°35'712.3
2017-Aug-25 01:58N 36°40' W 010°32'612.3
2017-Aug-25 01:30N 36°45' W 010°29'612.4
2017-Aug-25 01:00N 36°51' W 010°26'612.5
2017-Aug-25 00:30N 36°57' W 010°22'812.7
2017-Aug-24 23:54N 37°03' W 010°18'513.0
2017-Aug-24 23:29N 37°08' W 010°15'613.1
2017-Aug-24 23:00N 37°14' W 010°11'612.9
2017-Aug-24 22:30N 37°20' W 010°08'612.8
2017-Aug-24 22:00N 37°26' W 010°05'713.7
2017-Aug-24 21:30N 37°32' W 010°01'713.4
2017-Aug-24 21:00N 37°38' W 009°58'713.9
2017-Aug-24 20:30N 37°44' W 009°54'714.0
2017-Aug-24 20:00N 37°51' W 009°50'612.9
2017-Aug-24 19:30N 37°56' W 009°46'713.9
2017-Aug-24 19:00N 38°03' W 009°43'510.7
2017-Aug-24 18:30N 38°08' W 009°41'1 1.2
2017-Aug-24 18:01N 38°08' W 009°40'510.1
2017-Aug-24 17:30N 38°13' W 009°37'713.6
2017-Aug-24 17:00N 38°19' W 009°34'713.2
2017-Aug-24 16:30N 38°25' W 009°30'612.8
2017-Aug-24 16:00N 38°30' W 009°26'612.1
2017-Aug-24 15:30N 38°36' W 009°24'510.4
2017-Aug-24 15:00N 38°40' W 009°19'3 6.1
2017-Aug-24 14:30N 38°41' W 009°15'3 6.2
2017-Aug-24 13:59N 38°41' W 009°11'3 7.1
2017-Aug-24 13:30N 38°42' W 009°07'1 1.0
2017-Aug-24 12:58N 38°42' W 009°06'0 0.0
2017-Aug-24 12:27N 38°42' W 009°06'0 0.0
2017-Aug-24 11:58N 38°42' W 009°06'0 0.4
2017-Aug-24 11:28N 38°42' W 009°06'0 0.2
2017-Aug-24 10:58N 38°42' W 009°07'0 0.0
2017-Aug-24 10:28N 38°42' W 009°07'0 0.0
2017-Aug-24 09:52N 38°42' W 009°07'0 0.0
2017-Aug-24 09:22N 38°42' W 009°07'0 0.1
2017-Aug-24 08:55N 38°42' W 009°07'0 0.1
2017-Aug-24 08:25N 38°42' W 009°07'0 0.0
2017-Aug-24 07:55N 38°42' W 009°07'0 0.1
2017-Aug-24 07:25N 38°42' W 009°07'0 0.1
2017-Aug-24 06:58N 38°42' W 009°07'0 0.0
2017-Aug-24 06:28N 38°42' W 009°07'0 0.1
2017-Aug-24 05:58N 38°42' W 009°06'0 0.2
2017-Aug-24 04:46N 38°42' W 009°06'0 0.0
2017-Aug-24 04:28N 38°42' W 009°06'0 0.0
2017-Aug-24 03:34N 38°42' W 009°06'0 0.0
2017-Aug-24 03:28N 38°42' W 009°06'0 0.0
2017-Aug-24 02:58N 38°42' W 009°06'0 0.0
2017-Aug-24 00:01N 38°42' W 009°06'0 0.3
2017-Aug-23 23:58N 38°42' W 009°06'0 0.3
2017-Aug-23 23:19N 38°42' W 009°06'0 0.2
2017-Aug-23 22:58N 38°42' W 009°06'0 0.1
2017-Aug-23 22:25N 38°42' W 009°07'0 0.1
2017-Aug-23 21:55N 38°42' W 009°07'0 0.0
2017-Aug-23 21:22N 38°42' W 009°07'0 0.0
2017-Aug-23 20:58N 38°42' W 009°07'0 0.0
2017-Aug-23 20:25N 38°42' W 009°07'0 0.0
2017-Aug-23 19:58N 38°42' W 009°07'0 0.0
2017-Aug-23 19:28N 38°42' W 009°07'0 0.0
2017-Aug-23 18:58N 38°42' W 009°07'0 0.0
2017-Aug-23 18:28N 38°42' W 009°07'0 0.1
2017-Aug-23 17:58N 38°42' W 009°07'0 0.2
2017-Aug-23 17:28N 38°42' W 009°06'0 0.2
2017-Aug-23 16:37N 38°42' W 009°06'0 0.2
2017-Aug-23 16:28N 38°42' W 009°06'0 0.1
2017-Aug-23 15:55N 38°42' W 009°06'0 0.0
2017-Aug-23 15:28N 38°42' W 009°06'0 0.0
2017-Aug-23 14:55N 38°42' W 009°06'0 0.0
2017-Aug-23 13:58N 38°42' W 009°06'0 0.0
2017-Aug-23 13:19N 38°42' W 009°06'0 0.0
2017-Aug-23 12:55N 38°42' W 009°06'0 0.0
2017-Aug-23 12:19N 38°42' W 009°06'0 0.0
2017-Aug-23 11:58N 38°42' W 009°06'0 0.0
2017-Aug-23 11:28N 38°42' W 009°06'0 0.2
2017-Aug-23 10:58N 38°42' W 009°06'0 0.3
2017-Aug-23 10:28N 38°42' W 009°07'0 0.1
2017-Aug-23 09:58N 38°42' W 009°07'0 0.1
2017-Aug-23 09:28N 38°42' W 009°07'0 0.0
2017-Aug-23 08:58N 38°42' W 009°07'0 0.0
2017-Aug-23 08:25N 38°42' W 009°07'0 0.0
2017-Aug-23 07:58N 38°42' W 009°07'0 0.0
2017-Aug-23 07:28N 38°42' W 009°07'0 0.0
2017-Aug-23 06:58N 38°42' W 009°07'0 0.1
2017-Aug-23 06:28N 38°42' W 009°07'0 0.0
2017-Aug-23 05:52N 38°42' W 009°07'0 0.1
2017-Aug-23 05:25N 38°42' W 009°06'0 0.1
2017-Aug-23 04:58N 38°42' W 009°06'0 0.3
2017-Aug-23 04:28N 38°42' W 009°06'0 0.1
2017-Aug-23 03:58N 38°42' W 009°06'0 0.0
2017-Aug-23 03:28N 38°42' W 009°06'0 0.0
2017-Aug-23 02:58N 38°42' W 009°06'0 0.0
2017-Aug-23 02:28N 38°42' W 009°06'0 0.0
2017-Aug-23 01:58N 38°42' W 009°06'0 0.1
2017-Aug-23 01:28N 38°42' W 009°06'0 0.0
2017-Aug-23 00:58N 38°42' W 009°06'0 0.0
2017-Aug-23 00:28N 38°42' W 009°06'0 0.1
2017-Aug-22 23:58N 38°42' W 009°06'0 0.0
2017-Aug-22 23:28N 38°42' W 009°06'0 0.1
2017-Aug-22 22:58N 38°42' W 009°06'0 0.3
2017-Aug-22 22:28N 38°42' W 009°07'0 0.1
2017-Aug-22 21:58N 38°42' W 009°07'0 0.0
2017-Aug-22 21:28N 38°42' W 009°07'0 0.0
2017-Aug-22 20:58N 38°42' W 009°07'0 0.0
2017-Aug-22 20:25N 38°42' W 009°07'0 0.0
2017-Aug-22 19:58N 38°42' W 009°07'0 0.0
2017-Aug-22 19:28N 38°42' W 009°07'0 0.0
2017-Aug-22 18:58N 38°42' W 009°07'0 0.0
2017-Aug-22 18:25N 38°42' W 009°07'0 0.0
2017-Aug-22 17:55N 38°42' W 009°07'0 0.2
2017-Aug-22 17:28N 38°42' W 009°06'0 0.4
2017-Aug-22 16:58N 38°42' W 009°06'0 0.2
2017-Aug-22 16:28N 38°42' W 009°06'0 0.0
2017-Aug-22 15:52N 38°42' W 009°06'0 0.0
2017-Aug-22 15:22N 38°42' W 009°06'0 0.0
2017-Aug-22 14:52N 38°42' W 009°06'0 0.0
2017-Aug-22 14:28N 38°42' W 009°06'0 0.0
2017-Aug-22 13:58N 38°42' W 009°06'0 0.0
2017-Aug-22 13:28N 38°42' W 009°06'0 0.0
2017-Aug-22 12:58N 38°42' W 009°06'0 0.0
2017-Aug-22 12:28N 38°42' W 009°06'0 0.0
2017-Aug-22 11:49N 38°42' W 009°06'0 0.0
2017-Aug-22 10:58N 38°42' W 009°06'0 0.2
2017-Aug-22 10:28N 38°42' W 009°06'0 0.3
2017-Aug-22 09:58N 38°42' W 009°06'0 0.1
2017-Aug-22 09:28N 38°42' W 009°07'0 0.0
2017-Aug-22 08:55N 38°42' W 009°07'0 0.0
2017-Aug-22 08:25N 38°42' W 009°07'0 0.0
2017-Aug-22 07:58N 38°42' W 009°07'0 0.0
2017-Aug-22 07:28N 38°42' W 009°07'0 0.0
2017-Aug-22 06:58N 38°42' W 009°07'0 0.0
2017-Aug-22 06:28N 38°42' W 009°07'0 0.1
2017-Aug-22 05:49N 38°42' W 009°06'0 0.0
2017-Aug-22 05:22N 38°42' W 009°06'0 0.1
2017-Aug-22 04:58N 38°42' W 009°06'0 0.4
2017-Aug-22 04:25N 38°42' W 009°06'0 0.1
2017-Aug-22 03:58N 38°42' W 009°06'0 0.0
2017-Aug-22 03:19N 38°42' W 009°06'0 0.0
2017-Aug-22 02:58N 38°42' W 009°06'0 0.0
2017-Aug-22 02:28N 38°42' W 009°06'0 0.0
2017-Aug-22 01:52N 38°42' W 009°06'0 0.0
2017-Aug-22 01:22N 38°42' W 009°06'0 0.0
2017-Aug-22 00:58N 38°42' W 009°06'0 0.0
2017-Aug-22 00:28N 38°42' W 009°06'0 0.0
2017-Aug-21 23:22N 38°42' W 009°06'0 0.0
2017-Aug-21 22:49N 38°42' W 009°06'0 0.1
2017-Aug-21 22:22N 38°42' W 009°06'0 0.3
2017-Aug-21 21:58N 38°42' W 009°06'0 0.2
2017-Aug-21 21:28N 38°42' W 009°06'0 0.0
2017-Aug-21 20:58N 38°42' W 009°06'0 0.0
2017-Aug-21 20:28N 38°42' W 009°07'0 0.0
2017-Aug-21 19:58N 38°42' W 009°07'0 0.0
2017-Aug-21 19:16N 38°42' W 009°07'0 0.0
2017-Aug-21 18:58N 38°42' W 009°07'0 0.0
2017-Aug-21 18:28N 38°42' W 009°07'0 0.0
2017-Aug-21 17:58N 38°42' W 009°07'0 0.0
2017-Aug-21 17:25N 38°42' W 009°07'0 0.0
2017-Aug-21 16:58N 38°42' W 009°07'0 0.3
2017-Aug-21 16:28N 38°42' W 009°06'0 0.3
2017-Aug-21 15:52N 38°42' W 009°06'0 0.1
2017-Aug-21 15:22N 38°42' W 009°06'0 0.1
2017-Aug-21 14:58N 38°42' W 009°06'0 0.0
2017-Aug-21 14:22N 38°42' W 009°06'0 0.0
2017-Aug-21 13:58N 38°42' W 009°06'0 0.0
2017-Aug-21 13:28N 38°42' W 009°06'0 0.0
2017-Aug-21 12:58N 38°42' W 009°06'0 0.0
2017-Aug-21 12:28N 38°42' W 009°06'0 0.0
2017-Aug-21 11:58N 38°42' W 009°06'0 0.0
2017-Aug-21 11:04N 38°42' W 009°06'0 0.1
2017-Aug-21 10:58N 38°42' W 009°06'0 0.1
2017-Aug-21 10:28N 38°42' W 009°06'0 0.0
2017-Aug-21 09:58N 38°42' W 009°06'0 0.2
2017-Aug-21 09:22N 38°42' W 009°06'0 0.2
2017-Aug-21 08:58N 38°42' W 009°07'0 0.1
2017-Aug-21 08:25N 38°42' W 009°07'0 0.0
2017-Aug-21 07:58N 38°42' W 009°07'0 0.1
2017-Aug-21 07:22N 38°42' W 009°07'0 0.1
2017-Aug-21 06:58N 38°42' W 009°07'0 0.1
2017-Aug-21 06:28N 38°42' W 009°07'0 0.0
2017-Aug-21 05:58N 38°42' W 009°07'0 0.0
2017-Aug-21 05:28N 38°42' W 009°07'0 0.0
2017-Aug-21 04:58N 38°42' W 009°07'0 0.0
2017-Aug-21 04:28N 38°42' W 009°07'0 0.2
2017-Aug-21 03:58N 38°42' W 009°06'0 0.2
2017-Aug-21 03:25N 38°42' W 009°06'0 0.1
2017-Aug-21 02:58N 38°42' W 009°06'0 0.0
2017-Aug-21 02:01N 38°42' W 009°06'0 0.0
2017-Aug-21 01:49N 38°42' W 009°06'0 0.0
2017-Aug-21 01:28N 38°42' W 009°06'0 0.0
2017-Aug-21 00:49N 38°42' W 009°06'0 0.0
2017-Aug-21 00:25N 38°42' W 009°06'0 0.0
2017-Aug-20 23:58N 38°42' W 009°06'0 0.0
2017-Aug-20 23:28N 38°42' W 009°06'0 0.0
2017-Aug-20 22:58N 38°42' W 009°06'0 0.0
2017-Aug-20 22:28N 38°42' W 009°06'0 0.0
2017-Aug-20 21:58N 38°42' W 009°06'0 0.1
2017-Aug-20 21:22N 38°42' W 009°06'0 0.0
2017-Aug-20 20:58N 38°42' W 009°06'0 0.2
2017-Aug-20 20:28N 38°42' W 009°06'0 0.2
2017-Aug-20 19:58N 38°42' W 009°06'0 0.0
2017-Aug-20 19:28N 38°42' W 009°06'0 0.1
2017-Aug-20 18:58N 38°42' W 009°06'0 0.1
2017-Aug-20 18:28N 38°42' W 009°07'0 0.0
2017-Aug-20 17:55N 38°42' W 009°06'0 0.0
2017-Aug-20 17:25N 38°42' W 009°07'0 0.0
2017-Aug-20 16:55N 38°42' W 009°06'0 0.0
2017-Aug-20 16:25N 38°42' W 009°06'0 0.0
2017-Aug-20 15:58N 38°42' W 009°06'0 0.3
2017-Aug-20 15:22N 38°42' W 009°06'0 0.1
2017-Aug-20 14:58N 38°42' W 009°06'0 0.1
2017-Aug-20 14:22N 38°42' W 009°06'0 0.0
2017-Aug-20 13:46N 38°42' W 009°06'0 0.0
2017-Aug-20 13:28N 38°42' W 009°06'0 0.0
2017-Aug-20 12:58N 38°42' W 009°06'0 0.0
2017-Aug-20 11:43N 38°42' W 009°06'0 0.0
2017-Aug-20 11:25N 38°42' W 009°06'0 0.0
2017-Aug-20 10:52N 38°42' W 009°06'0 0.0
2017-Aug-20 10:28N 38°42' W 009°06'0 0.0
2017-Aug-20 09:58N 38°42' W 009°06'0 0.2
2017-Aug-20 09:28N 38°42' W 009°06'0 0.2
2017-Aug-20 08:58N 38°42' W 009°06'0 0.1
2017-Aug-20 08:25N 38°42' W 009°06'0 0.1
2017-Aug-20 07:58N 38°42' W 009°07'0 0.0
2017-Aug-20 07:28N 38°42' W 009°07'0 0.0
2017-Aug-20 06:58N 38°42' W 009°07'0 0.0
2017-Aug-20 06:25N 38°42' W 009°07'0 0.0
2017-Aug-20 05:58N 38°42' W 009°07'0 0.0
2017-Aug-20 05:28N 38°42' W 009°07'0 0.0
2017-Aug-20 04:58N 38°42' W 009°07'0 0.0
2017-Aug-20 04:28N 38°42' W 009°07'0 0.0
2017-Aug-20 03:55N 38°42' W 009°07'0 0.0
2017-Aug-20 03:28N 38°42' W 009°07'0 0.3
2017-Aug-20 02:58N 38°42' W 009°06'0 0.2
2017-Aug-20 02:28N 38°42' W 009°06'0 0.0
2017-Aug-20 01:58N 38°42' W 009°06'0 0.0
2017-Aug-20 01:25N 38°42' W 009°06'0 0.0
2017-Aug-20 00:34N 38°42' W 009°06'0 0.1
2017-Aug-20 00:28N 38°42' W 009°06'0 0.0
2017-Aug-19 23:16N 38°42' W 009°06'0 0.0
2017-Aug-19 22:43N 38°42' W 009°06'0 0.1
2017-Aug-19 22:28N 38°42' W 009°06'0 0.0
2017-Aug-19 21:52N 38°42' W 009°06'0 0.1
2017-Aug-19 21:28N 38°42' W 009°06'0 0.1
2017-Aug-19 20:58N 38°42' W 009°06'0 0.2
2017-Aug-19 20:28N 38°42' W 009°06'0 0.1
2017-Aug-19 19:58N 38°42' W 009°06'0 0.1
2017-Aug-19 19:28N 38°42' W 009°06'0 0.0
2017-Aug-19 18:55N 38°42' W 009°07'0 0.0
2017-Aug-19 18:25N 38°42' W 009°07'0 0.0
2017-Aug-19 17:58N 38°42' W 009°07'0 0.0
2017-Aug-19 17:28N 38°42' W 009°07'0 0.0
2017-Aug-19 16:55N 38°42' W 009°07'0 0.0
2017-Aug-19 16:28N 38°42' W 009°07'0 0.0
2017-Aug-19 15:58N 38°42' W 009°07'0 0.0
2017-Aug-19 15:28N 38°42' W 009°07'0 0.0
2017-Aug-19 14:58N 38°42' W 009°07'0 0.1
2017-Aug-19 13:58N 38°42' W 009°06'0 0.2
2017-Aug-19 13:25N 38°42' W 009°06'0 0.1
2017-Aug-19 12:58N 38°42' W 009°06'0 0.0
2017-Aug-19 12:22N 38°42' W 009°06'0 0.0
2017-Aug-19 11:58N 38°42' W 009°06'0 0.0
2017-Aug-19 11:28N 38°42' W 009°06'0 0.0
2017-Aug-19 10:22N 38°42' W 009°06'0 0.0
2017-Aug-19 09:58N 38°42' W 009°06'0 0.0
2017-Aug-19 09:16N 38°42' W 009°06'0 0.0
2017-Aug-19 08:55N 38°42' W 009°06'0 0.1
2017-Aug-19 08:25N 38°42' W 009°06'0 0.2
2017-Aug-19 07:58N 38°42' W 009°06'0 0.1
2017-Aug-19 07:28N 38°42' W 009°06'0 0.0
2017-Aug-19 06:55N 38°42' W 009°07'0 0.1
2017-Aug-19 06:28N 38°42' W 009°07'0 0.0
2017-Aug-19 05:55N 38°42' W 009°07'0 0.0
2017-Aug-19 05:28N 38°42' W 009°07'0 0.0
2017-Aug-19 04:58N 38°42' W 009°07'0 0.0
2017-Aug-19 04:28N 38°42' W 009°07'0 0.0
2017-Aug-19 03:58N 38°42' W 009°07'0 0.0
2017-Aug-19 03:28N 38°42' W 009°07'0 0.0
2017-Aug-19 02:58N 38°42' W 009°07'0 0.1
2017-Aug-19 02:28N 38°42' W 009°06'0 0.1
2017-Aug-19 01:58N 38°42' W 009°06'0 0.1
2017-Aug-19 01:28N 38°42' W 009°06'0 0.2
2017-Aug-19 00:52N 38°42' W 009°06'0 0.1
2017-Aug-19 00:28N 38°42' W 009°06'0 0.0
2017-Aug-18 23:58N 38°42' W 009°06'0 0.0
2017-Aug-18 23:25N 38°42' W 009°06'0 0.0
2017-Aug-18 22:52N 38°42' W 009°06'0 0.0
2017-Aug-18 22:16N 38°42' W 009°06'0 0.0
2017-Aug-18 21:58N 38°42' W 009°06'0 0.1
2017-Aug-18 21:28N 38°42' W 009°06'0 0.1
2017-Aug-18 20:58N 38°42' W 009°06'0 0.1
2017-Aug-18 20:25N 38°42' W 009°06'0 0.1
2017-Aug-18 19:55N 38°42' W 009°06'0 0.2
2017-Aug-18 19:28N 38°42' W 009°06'0 0.0
2017-Aug-18 18:55N 38°42' W 009°06'0 0.1
2017-Aug-18 18:28N 38°42' W 009°06'0 0.1
2017-Aug-18 17:58N 38°42' W 009°07'0 0.0
2017-Aug-18 17:25N 38°42' W 009°07'0 0.1
2017-Aug-18 16:58N 38°42' W 009°07'0 0.0
2017-Aug-18 16:28N 38°42' W 009°07'0 0.0
2017-Aug-18 15:58N 38°42' W 009°07'0 0.0
2017-Aug-18 15:28N 38°42' W 009°07'0 0.0
2017-Aug-18 14:58N 38°42' W 009°07'0 0.1
2017-Aug-18 13:55N 38°42' W 009°06'0 0.0
2017-Aug-18 13:28N 38°42' W 009°06'0 0.1
2017-Aug-18 12:58N 38°42' W 009°06'0 0.1
2017-Aug-18 12:28N 38°42' W 009°06'0 0.1
2017-Aug-18 11:58N 38°42' W 009°06'0 0.1
2017-Aug-18 11:28N 38°42' W 009°06'0 0.0
2017-Aug-18 10:58N 38°42' W 009°06'0 0.1
2017-Aug-18 10:25N 38°42' W 009°06'0 0.0
2017-Aug-18 09:58N 38°42' W 009°06'0 0.0
2017-Aug-18 09:28N 38°42' W 009°06'0 0.0
2017-Aug-18 08:58N 38°42' W 009°06'0 0.0
2017-Aug-18 08:28N 38°42' W 009°06'0 0.3
2017-Aug-18 07:58N 38°42' W 009°06'0 0.2
2017-Aug-18 07:25N 38°42' W 009°07'0 0.0
2017-Aug-18 06:58N 38°42' W 009°07'0 0.1
2017-Aug-18 06:28N 38°42' W 009°07'0 0.1
2017-Aug-18 05:58N 38°42' W 009°07'0 0.0
2017-Aug-18 05:28N 38°42' W 009°07'0 0.0
2017-Aug-18 04:58N 38°42' W 009°07'0 0.0
2017-Aug-18 04:25N 38°42' W 009°07'0 0.0
2017-Aug-18 03:58N 38°42' W 009°07'0 0.0
2017-Aug-18 03:25N 38°42' W 009°07'0 0.0
2017-Aug-18 02:58N 38°42' W 009°07'0 0.0
2017-Aug-18 02:28N 38°42' W 009°07'0 0.0
2017-Aug-18 01:58N 38°42' W 009°07'0 0.1
2017-Aug-18 01:30N 38°42' W 009°07'1 2.5
2017-Aug-18 01:01N 38°41' W 009°08'4 7.6
2017-Aug-18 00:30N 38°41' W 009°13'510.7
2017-Aug-18 00:00N 38°39' W 009°19'4 8.4
2017-Aug-17 23:30N 38°37' W 009°24'3 6.1
2017-Aug-17 23:00N 38°40' W 009°25'2 4.1
2017-Aug-17 22:31N 38°39' W 009°26'611.4
2017-Aug-17 22:01N 38°33' W 009°29'611.0
2017-Aug-17 21:30N 38°28' W 009°32'3 6.9
2017-Aug-17 21:01N 38°25' W 009°33'1 2.5
2017-Aug-17 20:31N 38°26' W 009°32'1 2.8
2017-Aug-17 20:00N 38°27' W 009°31'1 2.9
2017-Aug-17 19:31N 38°29' W 009°31'2 3.2
2017-Aug-17 19:00N 38°30' W 009°30'2 3.3
2017-Aug-17 18:31N 38°32' W 009°29'2 3.1
2017-Aug-17 18:00N 38°33' W 009°29'1 2.7
2017-Aug-17 17:31N 38°35' W 009°29'4 7.9
2017-Aug-17 17:00N 38°38' W 009°26'2 3.7
2017-Aug-17 16:31N 38°40' W 009°25'0 0.2
2017-Aug-17 15:59N 38°39' W 009°25'0 0.0
2017-Aug-17 15:28N 38°39' W 009°25'0 0.0
2017-Aug-17 14:59N 38°39' W 009°25'0 0.1
2017-Aug-17 14:28N 38°40' W 009°25'0 0.1
2017-Aug-17 13:59N 38°39' W 009°25'0 0.0
2017-Aug-17 13:28N 38°40' W 009°25'0 0.0
2017-Aug-17 12:58N 38°40' W 009°25'  

Dump ship's entire track history